sensor_id;sensor_type;location;lat;lon;timestamp;P1;durP1;ratioP1;P2;durP2;ratioP2
52742;SDS011;55583;53.012;6.556;2022-07-04T00:00:16;12.35;;;7.57;;
52742;SDS011;55583;53.012;6.556;2022-07-04T00:02:43;14.98;;;11.27;;
52742;SDS011;55583;53.012;6.556;2022-07-04T00:05:10;19.10;;;12.77;;
52742;SDS011;55583;53.012;6.556;2022-07-04T00:07:37;18.63;;;14.10;;
52742;SDS011;55583;53.012;6.556;2022-07-04T00:10:04;18.77;;;12.63;;
52742;SDS011;55583;53.012;6.556;2022-07-04T00:12:30;15.32;;;10.57;;
52742;SDS011;55583;53.012;6.556;2022-07-04T00:14:56;17.00;;;11.23;;
52742;SDS011;55583;53.012;6.556;2022-07-04T00:17:21;14.45;;;9.52;;
52742;SDS011;55583;53.012;6.556;2022-07-04T00:19:47;11.52;;;8.45;;
52742;SDS011;55583;53.012;6.556;2022-07-04T00:22:12;11.55;;;7.07;;
52742;SDS011;55583;53.012;6.556;2022-07-04T00:24:38;12.13;;;7.32;;
52742;SDS011;55583;53.012;6.556;2022-07-04T00:27:04;13.65;;;6.63;;
52742;SDS011;55583;53.012;6.556;2022-07-04T00:29:30;16.38;;;6.60;;
52742;SDS011;55583;53.012;6.556;2022-07-04T00:31:56;10.55;;;5.80;;
52742;SDS011;55583;53.012;6.556;2022-07-04T00:34:21;8.60;;;6.47;;
52742;SDS011;55583;53.012;6.556;2022-07-04T00:36:47;9.23;;;6.57;;
52742;SDS011;55583;53.012;6.556;2022-07-04T00:39:12;7.35;;;5.32;;
52742;SDS011;55583;53.012;6.556;2022-07-04T00:41:38;11.00;;;6.47;;
52742;SDS011;55583;53.012;6.556;2022-07-04T00:44:08;9.80;;;5.45;;
52742;SDS011;55583;53.012;6.556;2022-07-04T00:46:35;8.90;;;6.53;;
52742;SDS011;55583;53.012;6.556;2022-07-04T00:49:02;13.70;;;7.03;;
52742;SDS011;55583;53.012;6.556;2022-07-04T00:51:29;13.32;;;8.35;;
52742;SDS011;55583;53.012;6.556;2022-07-04T00:53:55;14.85;;;7.35;;
52742;SDS011;55583;53.012;6.556;2022-07-04T00:56:22;13.07;;;8.73;;
52742;SDS011;55583;53.012;6.556;2022-07-04T00:58:49;18.58;;;7.82;;
52742;SDS011;55583;53.012;6.556;2022-07-04T01:01:15;12.18;;;8.27;;
52742;SDS011;55583;53.012;6.556;2022-07-04T01:03:42;12.27;;;6.65;;
52742;SDS011;55583;53.012;6.556;2022-07-04T01:06:08;18.05;;;7.63;;
52742;SDS011;55583;53.012;6.556;2022-07-04T01:08:37;16.90;;;8.85;;
52742;SDS011;55583;53.012;6.556;2022-07-04T01:11:05;15.90;;;8.68;;
52742;SDS011;55583;53.012;6.556;2022-07-04T01:13:31;17.38;;;8.55;;
52742;SDS011;55583;53.012;6.556;2022-07-04T01:15:57;11.00;;;8.05;;
52742;SDS011;55583;53.012;6.556;2022-07-04T01:18:22;13.85;;;8.50;;
52742;SDS011;55583;53.012;6.556;2022-07-04T01:20:48;14.30;;;8.88;;
52742;SDS011;55583;53.012;6.556;2022-07-04T01:23:14;14.45;;;9.57;;
52742;SDS011;55583;53.012;6.556;2022-07-04T01:25:41;12.27;;;9.90;;
52742;SDS011;55583;53.012;6.556;2022-07-04T01:28:07;23.20;;;10.50;;
52742;SDS011;55583;53.012;6.556;2022-07-04T01:30:33;16.00;;;9.38;;
52742;SDS011;55583;53.012;6.556;2022-07-04T01:33:00;20.83;;;12.60;;
52742;SDS011;55583;53.012;6.556;2022-07-04T01:35:25;18.63;;;10.18;;
52742;SDS011;55583;53.012;6.556;2022-07-04T01:37:51;23.95;;;10.55;;
52742;SDS011;55583;53.012;6.556;2022-07-04T01:40:17;21.58;;;11.27;;
52742;SDS011;55583;53.012;6.556;2022-07-04T01:42:43;19.73;;;11.35;;
52742;SDS011;55583;53.012;6.556;2022-07-04T01:45:09;18.23;;;11.38;;
52742;SDS011;55583;53.012;6.556;2022-07-04T01:47:36;21.42;;;11.88;;
52742;SDS011;55583;53.012;6.556;2022-07-04T01:50:03;20.75;;;13.00;;
52742;SDS011;55583;53.012;6.556;2022-07-04T01:52:29;24.52;;;13.23;;
52742;SDS011;55583;53.012;6.556;2022-07-04T01:54:55;24.98;;;11.75;;
52742;SDS011;55583;53.012;6.556;2022-07-04T01:57:21;22.10;;;13.60;;
52742;SDS011;55583;53.012;6.556;2022-07-04T01:59:46;21.58;;;12.05;;
52742;SDS011;55583;53.012;6.556;2022-07-04T02:02:30;20.48;;;13.57;;
52742;SDS011;55583;53.012;6.556;2022-07-04T02:04:56;24.88;;;14.00;;
52742;SDS011;55583;53.012;6.556;2022-07-04T02:07:22;16.98;;;11.15;;
52742;SDS011;55583;53.012;6.556;2022-07-04T02:09:47;18.70;;;11.43;;
52742;SDS011;55583;53.012;6.556;2022-07-04T02:12:13;20.95;;;13.95;;
52742;SDS011;55583;53.012;6.556;2022-07-04T02:15:02;18.33;;;12.15;;
52742;SDS011;55583;53.012;6.556;2022-07-04T02:17:28;21.77;;;12.52;;
52742;SDS011;55583;53.012;6.556;2022-07-04T02:19:53;22.30;;;12.13;;
52742;SDS011;55583;53.012;6.556;2022-07-04T02:22:19;20.08;;;12.30;;
52742;SDS011;55583;53.012;6.556;2022-07-04T02:24:45;21.23;;;11.38;;
52742;SDS011;55583;53.012;6.556;2022-07-04T02:27:10;24.27;;;14.18;;
52742;SDS011;55583;53.012;6.556;2022-07-04T02:29:36;28.20;;;15.50;;
52742;SDS011;55583;53.012;6.556;2022-07-04T02:32:02;25.20;;;13.65;;
52742;SDS011;55583;53.012;6.556;2022-07-04T02:34:28;12.93;;;9.73;;
52742;SDS011;55583;53.012;6.556;2022-07-04T02:36:54;18.63;;;9.43;;
52742;SDS011;55583;53.012;6.556;2022-07-04T02:39:19;18.63;;;11.45;;
52742;SDS011;55583;53.012;6.556;2022-07-04T02:41:45;22.35;;;13.30;;
52742;SDS011;55583;53.012;6.556;2022-07-04T02:44:11;24.30;;;12.68;;
52742;SDS011;55583;53.012;6.556;2022-07-04T02:46:36;31.63;;;13.32;;
52742;SDS011;55583;53.012;6.556;2022-07-04T02:51:40;23.17;;;13.45;;
52742;SDS011;55583;53.012;6.556;2022-07-04T02:54:07;19.88;;;12.20;;
52742;SDS011;55583;53.012;6.556;2022-07-04T02:56:33;18.70;;;12.27;;
52742;SDS011;55583;53.012;6.556;2022-07-04T02:58:58;27.08;;;15.98;;
52742;SDS011;55583;53.012;6.556;2022-07-04T03:01:24;35.85;;;15.68;;
52742;SDS011;55583;53.012;6.556;2022-07-04T03:03:50;29.98;;;16.42;;
52742;SDS011;55583;53.012;6.556;2022-07-04T03:06:16;22.10;;;13.57;;
52742;SDS011;55583;53.012;6.556;2022-07-04T03:08:42;26.88;;;16.60;;
52742;SDS011;55583;53.012;6.556;2022-07-04T03:11:07;26.88;;;16.20;;
52742;SDS011;55583;53.012;6.556;2022-07-04T03:13:33;28.40;;;14.90;;
52742;SDS011;55583;53.012;6.556;2022-07-04T03:15:59;24.30;;;14.25;;
52742;SDS011;55583;53.012;6.556;2022-07-04T03:18:24;28.30;;;15.57;;
52742;SDS011;55583;53.012;6.556;2022-07-04T03:20:50;26.42;;;13.65;;
52742;SDS011;55583;53.012;6.556;2022-07-04T03:23:16;28.58;;;15.43;;
52742;SDS011;55583;53.012;6.556;2022-07-04T03:25:42;23.70;;;13.98;;
52742;SDS011;55583;53.012;6.556;2022-07-04T03:28:08;29.23;;;17.75;;
52742;SDS011;55583;53.012;6.556;2022-07-04T03:30:34;21.05;;;13.00;;
52742;SDS011;55583;53.012;6.556;2022-07-04T03:33:00;22.45;;;13.85;;
52742;SDS011;55583;53.012;6.556;2022-07-04T03:35:26;27.52;;;16.52;;
52742;SDS011;55583;53.012;6.556;2022-07-04T03:37:52;23.75;;;15.65;;
52742;SDS011;55583;53.012;6.556;2022-07-04T03:40:18;34.38;;;16.17;;
52742;SDS011;55583;53.012;6.556;2022-07-04T03:42:44;25.63;;;15.55;;
52742;SDS011;55583;53.012;6.556;2022-07-04T03:45:10;29.13;;;16.58;;
52742;SDS011;55583;53.012;6.556;2022-07-04T03:47:36;32.22;;;16.63;;
52742;SDS011;55583;53.012;6.556;2022-07-04T03:50:02;25.10;;;15.05;;
52742;SDS011;55583;53.012;6.556;2022-07-04T03:52:29;24.25;;;15.63;;
52742;SDS011;55583;53.012;6.556;2022-07-04T03:54:54;33.22;;;19.33;;
52742;SDS011;55583;53.012;6.556;2022-07-04T03:57:20;32.25;;;18.30;;
52742;SDS011;55583;53.012;6.556;2022-07-04T03:59:46;27.42;;;16.17;;
52742;SDS011;55583;53.012;6.556;2022-07-04T04:02:11;29.58;;;17.25;;
52742;SDS011;55583;53.012;6.556;2022-07-04T04:04:37;24.10;;;15.35;;
52742;SDS011;55583;53.012;6.556;2022-07-04T04:07:22;34.58;;;17.45;;
52742;SDS011;55583;53.012;6.556;2022-07-04T04:09:47;34.13;;;18.90;;
52742;SDS011;55583;53.012;6.556;2022-07-04T04:12:13;37.55;;;19.00;;
52742;SDS011;55583;53.012;6.556;2022-07-04T04:14:39;34.25;;;19.52;;
52742;SDS011;55583;53.012;6.556;2022-07-04T04:17:04;38.78;;;22.00;;
52742;SDS011;55583;53.012;6.556;2022-07-04T04:19:30;40.85;;;20.67;;
52742;SDS011;55583;53.012;6.556;2022-07-04T04:21:55;38.97;;;22.15;;
52742;SDS011;55583;53.012;6.556;2022-07-04T04:24:21;30.63;;;18.77;;
52742;SDS011;55583;53.012;6.556;2022-07-04T04:26:47;29.60;;;17.65;;
52742;SDS011;55583;53.012;6.556;2022-07-04T04:29:12;38.95;;;19.70;;
52742;SDS011;55583;53.012;6.556;2022-07-04T04:31:38;33.20;;;20.70;;
52742;SDS011;55583;53.012;6.556;2022-07-04T04:34:04;33.05;;;19.55;;
52742;SDS011;55583;53.012;6.556;2022-07-04T04:36:29;34.92;;;19.88;;
52742;SDS011;55583;53.012;6.556;2022-07-04T04:38:55;29.00;;;17.55;;
52742;SDS011;55583;53.012;6.556;2022-07-04T04:41:21;29.75;;;18.08;;
52742;SDS011;55583;53.012;6.556;2022-07-04T04:43:47;34.42;;;19.45;;
52742;SDS011;55583;53.012;6.556;2022-07-04T04:46:12;29.30;;;18.58;;
52742;SDS011;55583;53.012;6.556;2022-07-04T04:48:38;31.30;;;17.48;;
52742;SDS011;55583;53.012;6.556;2022-07-04T04:51:04;27.45;;;18.63;;
52742;SDS011;55583;53.012;6.556;2022-07-04T04:53:30;28.55;;;17.40;;
52742;SDS011;55583;53.012;6.556;2022-07-04T04:55:57;28.33;;;16.77;;
52742;SDS011;55583;53.012;6.556;2022-07-04T04:58:23;27.88;;;15.68;;
52742;SDS011;55583;53.012;6.556;2022-07-04T05:00:49;26.35;;;14.80;;
52742;SDS011;55583;53.012;6.556;2022-07-04T05:03:18;25.42;;;16.15;;
52742;SDS011;55583;53.012;6.556;2022-07-04T05:05:44;23.40;;;14.32;;
52742;SDS011;55583;53.012;6.556;2022-07-04T05:08:10;26.60;;;16.10;;
52742;SDS011;55583;53.012;6.556;2022-07-04T05:10:39;28.23;;;16.02;;
52742;SDS011;55583;53.012;6.556;2022-07-04T05:13:05;25.45;;;15.68;;
52742;SDS011;55583;53.012;6.556;2022-07-04T05:15:31;20.50;;;14.27;;
52742;SDS011;55583;53.012;6.556;2022-07-04T05:17:57;23.88;;;14.55;;
52742;SDS011;55583;53.012;6.556;2022-07-04T05:20:23;25.45;;;15.57;;
52742;SDS011;55583;53.012;6.556;2022-07-04T05:22:48;23.63;;;14.20;;
52742;SDS011;55583;53.012;6.556;2022-07-04T05:25:14;25.00;;;14.77;;
52742;SDS011;55583;53.012;6.556;2022-07-04T05:27:40;21.95;;;14.57;;
52742;SDS011;55583;53.012;6.556;2022-07-04T05:30:06;20.38;;;13.35;;
52742;SDS011;55583;53.012;6.556;2022-07-04T05:32:32;19.52;;;13.77;;
52742;SDS011;55583;53.012;6.556;2022-07-04T05:34:57;21.40;;;13.20;;
52742;SDS011;55583;53.012;6.556;2022-07-04T05:37:23;19.83;;;13.05;;
52742;SDS011;55583;53.012;6.556;2022-07-04T05:39:49;22.58;;;13.93;;
52742;SDS011;55583;53.012;6.556;2022-07-04T05:42:15;23.10;;;13.15;;
52742;SDS011;55583;53.012;6.556;2022-07-04T05:44:40;21.05;;;13.20;;
52742;SDS011;55583;53.012;6.556;2022-07-04T05:47:06;17.60;;;11.88;;
52742;SDS011;55583;53.012;6.556;2022-07-04T05:49:32;20.40;;;12.15;;
52742;SDS011;55583;53.012;6.556;2022-07-04T05:51:58;22.85;;;12.90;;
52742;SDS011;55583;53.012;6.556;2022-07-04T05:54:24;18.33;;;12.32;;
52742;SDS011;55583;53.012;6.556;2022-07-04T05:56:49;14.75;;;10.70;;
52742;SDS011;55583;53.012;6.556;2022-07-04T05:59:15;17.92;;;9.63;;
52742;SDS011;55583;53.012;6.556;2022-07-04T06:01:41;15.65;;;9.07;;
52742;SDS011;55583;53.012;6.556;2022-07-04T06:04:06;12.82;;;8.38;;
52742;SDS011;55583;53.012;6.556;2022-07-04T06:06:33;12.75;;;7.60;;
52742;SDS011;55583;53.012;6.556;2022-07-04T06:08:59;17.40;;;7.30;;
52742;SDS011;55583;53.012;6.556;2022-07-04T06:11:24;11.93;;;6.78;;
52742;SDS011;55583;53.012;6.556;2022-07-04T06:13:50;14.13;;;6.47;;
52742;SDS011;55583;53.012;6.556;2022-07-04T06:16:16;7.80;;;5.57;;
52742;SDS011;55583;53.012;6.556;2022-07-04T06:18:42;13.52;;;5.70;;
52742;SDS011;55583;53.012;6.556;2022-07-04T06:21:08;15.02;;;5.30;;
52742;SDS011;55583;53.012;6.556;2022-07-04T06:23:34;13.70;;;5.25;;
52742;SDS011;55583;53.012;6.556;2022-07-04T06:26:00;11.07;;;4.68;;
52742;SDS011;55583;53.012;6.556;2022-07-04T06:28:26;8.93;;;5.10;;
52742;SDS011;55583;53.012;6.556;2022-07-04T06:30:52;9.48;;;5.03;;
52742;SDS011;55583;53.012;6.556;2022-07-04T06:33:18;11.27;;;5.57;;
52742;SDS011;55583;53.012;6.556;2022-07-04T06:35:44;10.05;;;4.75;;
52742;SDS011;55583;53.012;6.556;2022-07-04T06:38:10;12.93;;;4.55;;
52742;SDS011;55583;53.012;6.556;2022-07-04T06:41:02;10.23;;;5.10;;
52742;SDS011;55583;53.012;6.556;2022-07-04T06:43:28;10.43;;;4.35;;
52742;SDS011;55583;53.012;6.556;2022-07-04T06:45:53;6.50;;;3.88;;
52742;SDS011;55583;53.012;6.556;2022-07-04T06:48:20;11.38;;;4.00;;
52742;SDS011;55583;53.012;6.556;2022-07-04T06:50:46;15.88;;;4.10;;
52742;SDS011;55583;53.012;6.556;2022-07-04T06:53:11;13.43;;;3.78;;
52742;SDS011;55583;53.012;6.556;2022-07-04T06:55:38;10.75;;;4.18;;
52742;SDS011;55583;53.012;6.556;2022-07-04T06:58:05;9.15;;;3.38;;
52742;SDS011;55583;53.012;6.556;2022-07-04T07:00:32;12.65;;;4.32;;
52742;SDS011;55583;53.012;6.556;2022-07-04T07:02:58;11.57;;;3.80;;
52742;SDS011;55583;53.012;6.556;2022-07-04T07:05:25;10.93;;;3.95;;
52742;SDS011;55583;53.012;6.556;2022-07-04T07:07:52;8.95;;;3.40;;
52742;SDS011;55583;53.012;6.556;2022-07-04T07:10:18;13.10;;;4.28;;
52742;SDS011;55583;53.012;6.556;2022-07-04T07:12:44;11.30;;;4.20;;
52742;SDS011;55583;53.012;6.556;2022-07-04T07:15:10;15.73;;;4.72;;
52742;SDS011;55583;53.012;6.556;2022-07-04T07:17:35;7.47;;;4.22;;
52742;SDS011;55583;53.012;6.556;2022-07-04T07:20:02;17.10;;;5.10;;
52742;SDS011;55583;53.012;6.556;2022-07-04T07:22:28;11.55;;;4.10;;
52742;SDS011;55583;53.012;6.556;2022-07-04T07:24:54;14.73;;;4.78;;
52742;SDS011;55583;53.012;6.556;2022-07-04T07:27:19;10.50;;;4.22;;
52742;SDS011;55583;53.012;6.556;2022-07-04T07:29:45;9.85;;;4.30;;
52742;SDS011;55583;53.012;6.556;2022-07-04T07:32:11;9.90;;;4.25;;
52742;SDS011;55583;53.012;6.556;2022-07-04T07:34:36;13.38;;;4.50;;
52742;SDS011;55583;53.012;6.556;2022-07-04T07:37:02;12.82;;;4.28;;
52742;SDS011;55583;53.012;6.556;2022-07-04T07:39:28;9.90;;;3.95;;
52742;SDS011;55583;53.012;6.556;2022-07-04T07:41:53;10.57;;;3.70;;
52742;SDS011;55583;53.012;6.556;2022-07-04T07:44:19;8.02;;;3.60;;
52742;SDS011;55583;53.012;6.556;2022-07-04T07:46:45;12.25;;;3.47;;
52742;SDS011;55583;53.012;6.556;2022-07-04T07:49:10;8.35;;;3.35;;
52742;SDS011;55583;53.012;6.556;2022-07-04T07:51:36;8.98;;;3.45;;
52742;SDS011;55583;53.012;6.556;2022-07-04T07:54:02;8.48;;;3.42;;
52742;SDS011;55583;53.012;6.556;2022-07-04T07:56:27;7.30;;;3.00;;
52742;SDS011;55583;53.012;6.556;2022-07-04T07:58:53;13.02;;;3.45;;
52742;SDS011;55583;53.012;6.556;2022-07-04T08:01:18;8.45;;;2.95;;
52742;SDS011;55583;53.012;6.556;2022-07-04T08:03:45;11.18;;;2.65;;
52742;SDS011;55583;53.012;6.556;2022-07-04T08:06:30;9.02;;;2.92;;
52742;SDS011;55583;53.012;6.556;2022-07-04T08:08:56;9.93;;;2.80;;
52742;SDS011;55583;53.012;6.556;2022-07-04T08:11:22;6.63;;;2.42;;
52742;SDS011;55583;53.012;6.556;2022-07-04T08:13:48;9.23;;;3.00;;
52742;SDS011;55583;53.012;6.556;2022-07-04T08:16:13;8.23;;;2.33;;
52742;SDS011;55583;53.012;6.556;2022-07-04T08:18:39;10.73;;;1.95;;
52742;SDS011;55583;53.012;6.556;2022-07-04T08:21:04;6.35;;;2.05;;
52742;SDS011;55583;53.012;6.556;2022-07-04T08:23:31;9.30;;;2.55;;
52742;SDS011;55583;53.012;6.556;2022-07-04T08:25:58;6.63;;;2.35;;
52742;SDS011;55583;53.012;6.556;2022-07-04T08:28:24;6.68;;;2.05;;
52742;SDS011;55583;53.012;6.556;2022-07-04T08:30:50;5.38;;;2.30;;
52742;SDS011;55583;53.012;6.556;2022-07-04T08:33:16;13.55;;;3.17;;
52742;SDS011;55583;53.012;6.556;2022-07-04T08:35:42;6.88;;;2.33;;
52742;SDS011;55583;53.012;6.556;2022-07-04T08:38:08;7.82;;;2.42;;
52742;SDS011;55583;53.012;6.556;2022-07-04T08:40:34;7.53;;;2.45;;
52742;SDS011;55583;53.012;6.556;2022-07-04T08:43:00;7.68;;;2.50;;
52742;SDS011;55583;53.012;6.556;2022-07-04T08:45:27;5.72;;;2.47;;
52742;SDS011;55583;53.012;6.556;2022-07-04T08:48:13;7.40;;;2.13;;
52742;SDS011;55583;53.012;6.556;2022-07-04T08:50:42;7.03;;;2.15;;
52742;SDS011;55583;53.012;6.556;2022-07-04T08:55:40;4.80;;;1.73;;
52742;SDS011;55583;53.012;6.556;2022-07-04T08:58:25;3.50;;;1.38;;
52742;SDS011;55583;53.012;6.556;2022-07-04T09:00:59;4.78;;;1.60;;
52742;SDS011;55583;53.012;6.556;2022-07-04T09:03:28;6.03;;;2.22;;
52742;SDS011;55583;53.012;6.556;2022-07-04T09:05:55;3.80;;;1.63;;
52742;SDS011;55583;53.012;6.556;2022-07-04T09:08:22;5.40;;;1.50;;
52742;SDS011;55583;53.012;6.556;2022-07-04T09:10:49;5.20;;;1.77;;
52742;SDS011;55583;53.012;6.556;2022-07-04T09:13:15;5.07;;;1.33;;
52742;SDS011;55583;53.012;6.556;2022-07-04T09:15:49;4.45;;;1.50;;
52742;SDS011;55583;53.012;6.556;2022-07-04T09:18:19;3.65;;;1.00;;
52742;SDS011;55583;53.012;6.556;2022-07-04T09:20:51;2.92;;;1.40;;
52742;SDS011;55583;53.012;6.556;2022-07-04T09:23:27;6.53;;;1.27;;
52742;SDS011;55583;53.012;6.556;2022-07-04T09:28:45;3.03;;;1.25;;
52742;SDS011;55583;53.012;6.556;2022-07-04T09:31:16;3.28;;;1.20;;
52742;SDS011;55583;53.012;6.556;2022-07-04T09:34:02;4.72;;;1.02;;
52742;SDS011;55583;53.012;6.556;2022-07-04T09:36:30;4.43;;;1.88;;
52742;SDS011;55583;53.012;6.556;2022-07-04T09:39:09;3.17;;;1.00;;
52742;SDS011;55583;53.012;6.556;2022-07-04T09:44:20;3.30;;;1.20;;
52742;SDS011;55583;53.012;6.556;2022-07-04T09:46:47;4.88;;;1.20;;
52742;SDS011;55583;53.012;6.556;2022-07-04T09:49:13;4.63;;;1.30;;
52742;SDS011;55583;53.012;6.556;2022-07-04T09:51:43;1.20;;;0.95;;
52742;SDS011;55583;53.012;6.556;2022-07-04T09:56:50;2.17;;;1.00;;
52742;SDS011;55583;53.012;6.556;2022-07-04T09:59:18;1.42;;;0.85;;
52742;SDS011;55583;53.012;6.556;2022-07-04T10:01:44;4.57;;;1.27;;
52742;SDS011;55583;53.012;6.556;2022-07-04T10:04:10;5.07;;;1.25;;
52742;SDS011;55583;53.012;6.556;2022-07-04T10:06:38;2.88;;;0.95;;
52742;SDS011;55583;53.012;6.556;2022-07-04T10:09:08;1.30;;;0.70;;
52742;SDS011;55583;53.012;6.556;2022-07-04T10:11:35;2.40;;;0.82;;
52742;SDS011;55583;53.012;6.556;2022-07-04T10:14:03;2.63;;;0.77;;
52742;SDS011;55583;53.012;6.556;2022-07-04T10:16:30;6.53;;;0.80;;
52742;SDS011;55583;53.012;6.556;2022-07-04T10:18:56;4.35;;;0.90;;
52742;SDS011;55583;53.012;6.556;2022-07-04T10:21:22;1.30;;;0.80;;
52742;SDS011;55583;53.012;6.556;2022-07-04T10:23:49;1.45;;;0.90;;
52742;SDS011;55583;53.012;6.556;2022-07-04T10:26:20;1.40;;;0.82;;
52742;SDS011;55583;53.012;6.556;2022-07-04T10:28:47;2.58;;;0.93;;
52742;SDS011;55583;53.012;6.556;2022-07-04T10:31:14;1.42;;;0.73;;
52742;SDS011;55583;53.012;6.556;2022-07-04T10:33:41;3.70;;;1.05;;
52742;SDS011;55583;53.012;6.556;2022-07-04T10:36:16;2.38;;;1.10;;
52742;SDS011;55583;53.012;6.556;2022-07-04T10:38:48;1.63;;;0.82;;
52742;SDS011;55583;53.012;6.556;2022-07-04T10:41:14;1.35;;;0.95;;
52742;SDS011;55583;53.012;6.556;2022-07-04T10:46:28;4.15;;;1.60;;
52742;SDS011;55583;53.012;6.556;2022-07-04T10:54:05;3.85;;;1.33;;
52742;SDS011;55583;53.012;6.556;2022-07-04T10:56:38;1.65;;;1.40;;
52742;SDS011;55583;53.012;6.556;2022-07-04T10:59:14;4.13;;;1.27;;
52742;SDS011;55583;53.012;6.556;2022-07-04T11:01:44;3.67;;;1.65;;
52742;SDS011;55583;53.012;6.556;2022-07-04T11:04:35;5.13;;;1.33;;
52742;SDS011;55583;53.012;6.556;2022-07-04T11:07:09;4.93;;;1.33;;
52742;SDS011;55583;53.012;6.556;2022-07-04T11:09:35;1.35;;;1.25;;
52742;SDS011;55583;53.012;6.556;2022-07-04T11:12:03;4.28;;;1.10;;
52742;SDS011;55583;53.012;6.556;2022-07-04T11:17:03;2.92;;;1.20;;
52742;SDS011;55583;53.012;6.556;2022-07-04T11:19:38;1.70;;;1.13;;
52742;SDS011;55583;53.012;6.556;2022-07-04T11:22:05;2.28;;;1.05;;
52742;SDS011;55583;53.012;6.556;2022-07-04T11:24:32;3.28;;;1.15;;
52742;SDS011;55583;53.012;6.556;2022-07-04T11:26:58;4.60;;;1.00;;
52742;SDS011;55583;53.012;6.556;2022-07-04T11:29:25;4.40;;;0.90;;
52742;SDS011;55583;53.012;6.556;2022-07-04T11:31:52;1.52;;;0.77;;
52742;SDS011;55583;53.012;6.556;2022-07-04T11:34:19;3.42;;;0.88;;
52742;SDS011;55583;53.012;6.556;2022-07-04T11:36:46;4.13;;;1.10;;
52742;SDS011;55583;53.012;6.556;2022-07-04T11:39:18;1.02;;;0.75;;
52742;SDS011;55583;53.012;6.556;2022-07-04T11:41:54;1.50;;;0.90;;
52742;SDS011;55583;53.012;6.556;2022-07-04T11:44:39;3.40;;;1.00;;
52742;SDS011;55583;53.012;6.556;2022-07-04T11:47:34;2.95;;;0.82;;
52742;SDS011;55583;53.012;6.556;2022-07-04T11:50:05;1.75;;;0.82;;
52742;SDS011;55583;53.012;6.556;2022-07-04T11:55:09;3.20;;;1.23;;
52742;SDS011;55583;53.012;6.556;2022-07-04T11:57:39;5.40;;;1.20;;
52742;SDS011;55583;53.012;6.556;2022-07-04T12:00:13;1.45;;;0.80;;
52742;SDS011;55583;53.012;6.556;2022-07-04T12:02:39;2.72;;;0.85;;
52742;SDS011;55583;53.012;6.556;2022-07-04T12:05:07;2.95;;;0.93;;
52742;SDS011;55583;53.012;6.556;2022-07-04T12:07:39;4.18;;;0.98;;
52742;SDS011;55583;53.012;6.556;2022-07-04T12:10:21;3.22;;;0.95;;
52742;SDS011;55583;53.012;6.556;2022-07-04T12:15:18;2.15;;;0.73;;
52742;SDS011;55583;53.012;6.556;2022-07-04T12:17:44;3.60;;;1.20;;
52742;SDS011;55583;53.012;6.556;2022-07-04T12:22:52;1.85;;;0.85;;
52742;SDS011;55583;53.012;6.556;2022-07-04T12:25:21;3.08;;;0.50;;
52742;SDS011;55583;53.012;6.556;2022-07-04T12:28:02;2.40;;;0.70;;
52742;SDS011;55583;53.012;6.556;2022-07-04T12:30:31;3.60;;;0.80;;
52742;SDS011;55583;53.012;6.556;2022-07-04T12:33:07;0.98;;;0.45;;
52742;SDS011;55583;53.012;6.556;2022-07-04T12:38:29;1.58;;;0.88;;
52742;SDS011;55583;53.012;6.556;2022-07-04T12:46:04;2.85;;;0.70;;
52742;SDS011;55583;53.012;6.556;2022-07-04T12:48:31;3.75;;;1.05;;
52742;SDS011;55583;53.012;6.556;2022-07-04T12:51:08;1.20;;;0.75;;
52742;SDS011;55583;53.012;6.556;2022-07-04T12:53:44;3.03;;;0.70;;
52742;SDS011;55583;53.012;6.556;2022-07-04T12:56:27;3.97;;;0.80;;
52742;SDS011;55583;53.012;6.556;2022-07-04T12:58:53;3.33;;;1.00;;
52742;SDS011;55583;53.012;6.556;2022-07-04T13:01:19;1.85;;;0.50;;
52742;SDS011;55583;53.012;6.556;2022-07-04T13:03:45;3.13;;;0.63;;
52742;SDS011;55583;53.012;6.556;2022-07-04T13:06:10;2.45;;;0.70;;
52742;SDS011;55583;53.012;6.556;2022-07-04T13:08:36;3.42;;;0.77;;
52742;SDS011;55583;53.012;6.556;2022-07-04T13:11:01;1.67;;;0.60;;
52742;SDS011;55583;53.012;6.556;2022-07-04T13:13:46;2.35;;;0.70;;
52742;SDS011;55583;53.012;6.556;2022-07-04T13:16:11;0.77;;;0.50;;
52742;SDS011;55583;53.012;6.556;2022-07-04T13:18:38;3.42;;;0.75;;
52742;SDS011;55583;53.012;6.556;2022-07-04T13:21:03;2.35;;;0.45;;
52742;SDS011;55583;53.012;6.556;2022-07-04T13:23:29;3.45;;;0.50;;
52742;SDS011;55583;53.012;6.556;2022-07-04T13:25:55;1.10;;;0.60;;
52742;SDS011;55583;53.012;6.556;2022-07-04T13:28:20;3.60;;;0.75;;
52742;SDS011;55583;53.012;6.556;2022-07-04T13:30:46;2.03;;;0.65;;
52742;SDS011;55583;53.012;6.556;2022-07-04T13:33:12;1.95;;;0.90;;
52742;SDS011;55583;53.012;6.556;2022-07-04T13:35:37;1.73;;;0.70;;
52742;SDS011;55583;53.012;6.556;2022-07-04T13:38:03;1.02;;;0.40;;
52742;SDS011;55583;53.012;6.556;2022-07-04T13:40:28;5.75;;;0.52;;
52742;SDS011;55583;53.012;6.556;2022-07-04T13:42:54;1.25;;;0.63;;
52742;SDS011;55583;53.012;6.556;2022-07-04T13:45:24;2.80;;;0.55;;
52742;SDS011;55583;53.012;6.556;2022-07-04T13:47:53;0.90;;;0.50;;
52742;SDS011;55583;53.012;6.556;2022-07-04T13:50:20;2.30;;;0.70;;
52742;SDS011;55583;53.012;6.556;2022-07-04T13:52:46;1.83;;;0.70;;
52742;SDS011;55583;53.012;6.556;2022-07-04T13:55:12;2.55;;;0.73;;
52742;SDS011;55583;53.012;6.556;2022-07-04T13:57:37;2.40;;;0.80;;
52742;SDS011;55583;53.012;6.556;2022-07-04T14:00:06;3.08;;;0.95;;
52742;SDS011;55583;53.012;6.556;2022-07-04T14:02:33;2.22;;;0.60;;
52742;SDS011;55583;53.012;6.556;2022-07-04T14:04:59;1.50;;;0.75;;
52742;SDS011;55583;53.012;6.556;2022-07-04T14:07:25;1.23;;;0.70;;
52742;SDS011;55583;53.012;6.556;2022-07-04T14:09:50;3.08;;;1.20;;
52742;SDS011;55583;53.012;6.556;2022-07-04T14:12:16;3.03;;;0.95;;
52742;SDS011;55583;53.012;6.556;2022-07-04T14:14:42;1.70;;;0.80;;
52742;SDS011;55583;53.012;6.556;2022-07-04T14:17:08;1.98;;;0.82;;
52742;SDS011;55583;53.012;6.556;2022-07-04T14:19:34;1.90;;;0.80;;
52742;SDS011;55583;53.012;6.556;2022-07-04T14:21:59;2.53;;;0.70;;
52742;SDS011;55583;53.012;6.556;2022-07-04T14:24:25;1.85;;;0.77;;
52742;SDS011;55583;53.012;6.556;2022-07-04T14:26:54;3.60;;;1.08;;
52742;SDS011;55583;53.012;6.556;2022-07-04T14:29:20;2.60;;;0.77;;
52742;SDS011;55583;53.012;6.556;2022-07-04T14:31:46;2.47;;;0.90;;
52742;SDS011;55583;53.012;6.556;2022-07-04T14:34:12;0.98;;;0.60;;
52742;SDS011;55583;53.012;6.556;2022-07-04T14:36:40;3.33;;;0.90;;
52742;SDS011;55583;53.012;6.556;2022-07-04T14:39:06;1.70;;;0.60;;
52742;SDS011;55583;53.012;6.556;2022-07-04T14:41:32;1.70;;;0.60;;
52742;SDS011;55583;53.012;6.556;2022-07-04T14:43:58;5.95;;;0.63;;
52742;SDS011;55583;53.012;6.556;2022-07-04T14:46:25;2.58;;;0.63;;
52742;SDS011;55583;53.012;6.556;2022-07-04T14:48:50;0.82;;;0.50;;
52742;SDS011;55583;53.012;6.556;2022-07-04T14:51:16;2.15;;;0.70;;
52742;SDS011;55583;53.012;6.556;2022-07-04T14:53:42;0.50;;;0.47;;
52742;SDS011;55583;53.012;6.556;2022-07-04T14:56:07;2.63;;;0.80;;
52742;SDS011;55583;53.012;6.556;2022-07-04T14:58:33;2.78;;;1.02;;
52742;SDS011;55583;53.012;6.556;2022-07-04T15:00:59;3.75;;;0.82;;
52742;SDS011;55583;53.012;6.556;2022-07-04T15:03:24;0.88;;;0.38;;
52742;SDS011;55583;53.012;6.556;2022-07-04T15:05:50;2.15;;;0.80;;
52742;SDS011;55583;53.012;6.556;2022-07-04T15:08:16;4.43;;;0.73;;
52742;SDS011;55583;53.012;6.556;2022-07-04T15:10:41;1.40;;;0.90;;
52742;SDS011;55583;53.012;6.556;2022-07-04T15:13:07;3.13;;;0.88;;
52742;SDS011;55583;53.012;6.556;2022-07-04T15:15:33;3.28;;;0.90;;